CW3330 Buedelsdorf DE current weather conditions

sailwx.info

Wind from 275

Air temperature 2.2° C
Dewpoint 1.9° C

Last reported at 2020-Jan-22 21:55 UTC.
Time now 2020-Jan-22 22:25 UTC

Location: N 54°19' E 009°40'.
View on Google Maps.

See reports from other nearby stations

  
Tides and Currents Weather Stations Pressure Air Temp Water Temp Dewpoint Dewpoint Depression Visibility Wind Speed Wind Dir Waves Ship Positions
date/time (UTC)wind fromknots sea level pressurealtimeterstation pressurevisibilityair tempwater tempwave heightnotes
2020-Jan-22 22:10 250 2.2
2020-Jan-22 22:05 250 0 gusting 4 2.2
2020-Jan-22 22:00 277 2.2
2020-Jan-22 21:55 275 2.2
2020-Jan-22 21:50 277 2.2
2020-Jan-22 21:45 275 0 gusting 2 2.2
2020-Jan-22 21:40 277 0 gusting 1 2.2
2020-Jan-22 21:35 281 2.2
2020-Jan-22 21:30 279 2.2
2020-Jan-22 21:25 281 2.2
2020-Jan-22 21:20 279 2.2
2020-Jan-22 21:15 279 0 gusting 1 2.2
2020-Jan-22 21:10 257 2.2
2020-Jan-22 21:05 257 1 gusting 5 2.2
2020-Jan-22 21:00 290 2.2
2020-Jan-22 20:55 290 0 gusting 1 2.8
2020-Jan-22 20:50 290 2.8
2020-Jan-22 20:45 293 2.8
2020-Jan-22 20:40 290 2.8
2020-Jan-22 20:35 288 2.8
2020-Jan-22 20:30 275 1 gusting 4 2.8
2020-Jan-22 20:25 261 0 gusting 4 2.8
2020-Jan-22 20:20 310 1 gusting 4 3.3
2020-Jan-22 20:15 263 0 gusting 5 3.3
2020-Jan-22 20:10 261 1 gusting 5 3.3
2020-Jan-22 20:05 265 2 gusting 5 3.3
2020-Jan-22 20:00 283 2 gusting 4 3.3
2020-Jan-22 19:55 261 1 gusting 4 3.3
2020-Jan-22 19:50 261 1 gusting 4 3.3
2020-Jan-22 19:45 288 0 gusting 1 3.3
2020-Jan-22 19:40 288 0 gusting 1 3.3
2020-Jan-22 19:35 288 3.3
2020-Jan-22 19:30 289 3.3
2020-Jan-22 19:25 269 1 gusting 5 3.3
2020-Jan-22 19:20 265 1 gusting 4 3.9
2020-Jan-22 19:15 263 0 gusting 4 3.9
2020-Jan-22 19:10 273 0 gusting 4 3.9
2020-Jan-22 19:05 267 0 gusting 1 3.9
2020-Jan-22 19:00 268 0 gusting 2 3.9
2020-Jan-22 18:55 276 0 gusting 1 3.9
2020-Jan-22 18:50 277 3.9
2020-Jan-22 18:45 255 1 gusting 4 3.9
2020-Jan-22 18:40 266 3.9
2020-Jan-22 18:35 264 2 gusting 5 3.9
2020-Jan-22 18:30 290 0 gusting 1 3.9
2020-Jan-22 18:25 292 0 gusting 1 3.9
2020-Jan-22 18:20 296 0 gusting 2 3.9
2020-Jan-22 18:15 296 0 gusting 2 4.4
2020-Jan-22 18:10 293 4.4
2020-Jan-22 18:05 292 0 gusting 1 4.4
2020-Jan-22 18:00 297 0 gusting 4 4.4
2020-Jan-22 17:55 300 1 gusting 4 4.4
2020-Jan-22 17:50 315 1 gusting 4 4.4
2020-Jan-22 17:45 258 1 gusting 5 5.0
2020-Jan-22 17:40 289 1 gusting 5 5.0
2020-Jan-22 17:35 296 1 gusting 5 5.0
2020-Jan-22 17:30 263 0 gusting 1 5.0
2020-Jan-22 17:25 261 1 gusting 5 5.0
2020-Jan-22 17:20 331 2 gusting 6 5.0
2020-Jan-22 17:15 294 2 gusting 6 5.0
2020-Jan-22 17:10 280 1 gusting 5 5.0
2020-Jan-22 17:05 267 1 gusting 5 5.0
2020-Jan-22 17:00 303 0 gusting 5 5.6
2020-Jan-22 16:55 283 1 gusting 4 5.6
2020-Jan-22 16:50 261 0 gusting 4 5.6
2020-Jan-22 16:45 305 1 gusting 4 5.6
2020-Jan-22 16:40 307 3 gusting 6 5.6
2020-Jan-22 16:35 315 1 gusting 5 5.6
2020-Jan-22 16:30 314 2 gusting 5 5.6
2020-Jan-22 16:25 308 3 gusting 6 5.6
2020-Jan-22 16:20 306 4 gusting 6 6.1
2020-Jan-22 16:15 300 1 gusting 6 6.1
2020-Jan-22 16:10 307 2 gusting 6 6.1
2020-Jan-22 16:05 310 2 gusting 5 6.1
2020-Jan-22 16:00 301 2 gusting 6 6.1
2020-Jan-22 15:55 301 4 gusting 6 6.1
2020-Jan-22 15:50 298 1 gusting 5 6.1
2020-Jan-22 15:45 311 0 gusting 4 6.1
2020-Jan-22 15:40 295 0 gusting 4 6.1
2020-Jan-22 15:35 315 2 gusting 6 6.7
2020-Jan-22 15:30 296 2 gusting 6 6.7
2020-Jan-22 15:25 317 1 gusting 5 6.7
2020-Jan-22 15:20 302 2 gusting 6 6.7
2020-Jan-22 15:15 292 2 gusting 6 6.7
2020-Jan-22 15:10 328 2 gusting 6 7.2
2020-Jan-22 15:05 296 1 gusting 5 7.2
2020-Jan-22 15:00 306 3 gusting 6 7.2
2020-Jan-22 14:55 314 4 gusting 7 7.2
2020-Jan-22 14:50 298 5 gusting 6 7.2
2020-Jan-22 14:45 321 3 gusting 7 7.2
2020-Jan-22 14:40 305 4 gusting 7 7.2
2020-Jan-22 14:35 315 4 gusting 7 7.2
2020-Jan-22 14:30 314 4 gusting 6 7.2
2020-Jan-22 14:25 292 4 gusting 7 7.2
2020-Jan-22 14:20 305 4 gusting 6 7.8
2020-Jan-22 14:15 295 6 gusting 8 7.8
2020-Jan-22 14:10 292 2 gusting 6 7.8
2020-Jan-22 14:05 303 5 gusting 7 7.8
2020-Jan-22 14:00 304 5 gusting 7 7.8
2020-Jan-22 13:55 316 3 gusting 7 7.8
2020-Jan-22 13:50 303 4 gusting 7 7.8
2020-Jan-22 13:45 300 6 gusting 7 7.8
2020-Jan-22 13:40 305 6 gusting 7 7.8
2020-Jan-22 13:35 319 2 gusting 8 7.8
2020-Jan-22 13:30 299 4 gusting 7 7.8
2020-Jan-22 13:25 293 5 gusting 10 7.8
2020-Jan-22 13:20 302 2 gusting 7 7.8
2020-Jan-22 13:15 311 4 gusting 8 7.8
2020-Jan-22 13:10 281 4 gusting 7 8.3
2020-Jan-22 13:05 291 5 gusting 8 8.3
2020-Jan-22 13:00 285 5 gusting 7 7.8
2020-Jan-22 12:55 292 5 gusting 8 8.3
2020-Jan-22 12:50 293 3 gusting 7 8.3
2020-Jan-22 12:45 293 5 gusting 10 7.8
2020-Jan-22 12:40 279 6 gusting 13 7.8
2020-Jan-22 12:35 312 7 gusting 11 7.8
2020-Jan-22 12:30 313 8 gusting 12 7.8
2020-Jan-22 12:25 301 8 gusting 13 7.8
2020-Jan-22 12:20 297 6 gusting 10 7.8
2020-Jan-22 12:15 308 10 gusting 13 7.8
2020-Jan-22 12:10 302 5 gusting 10 7.8
2020-Jan-22 12:05 303 7 gusting 13 7.8
2020-Jan-22 12:00 316 6 gusting 11 7.8
2020-Jan-22 11:55 291 6 gusting 11 7.8
2020-Jan-22 11:50 315 7 gusting 13 7.8
2020-Jan-22 11:45 314 6 gusting 11 7.8
2020-Jan-22 11:40 305 6 gusting 10 7.2
2020-Jan-22 11:35 287 6 gusting 12 7.2
2020-Jan-22 11:30 307 8 gusting 11 7.2
2020-Jan-22 11:25 312 7 gusting 11 6.7
2020-Jan-22 11:20 321 6 gusting 12 6.7
2020-Jan-22 11:15 306 6 gusting 10 6.7
2020-Jan-22 11:10 313 6 gusting 11 6.7
2020-Jan-22 11:05 304 6 gusting 11 6.7
2020-Jan-22 11:00 302 6 gusting 8 6.7
2020-Jan-22 10:55 311 7 gusting 12 6.7
2020-Jan-22 10:50 306 5 gusting 7 6.7
2020-Jan-22 10:45 317 6 gusting 10 6.7
2020-Jan-22 10:40 304 5 gusting 7 6.7
2020-Jan-22 10:35 289 5 gusting 8 6.7
2020-Jan-22 10:30 300 5 gusting 7 6.7
2020-Jan-22 10:25 320 6 gusting 8 6.1
2020-Jan-22 10:20 309 6 gusting 10 6.1
2020-Jan-22 10:15 311 5 gusting 7 6.1
2020-Jan-22 10:10 305 7 gusting 12 6.1
2020-Jan-22 10:05 311 3 gusting 8 6.1
2020-Jan-22 10:00 302 6 gusting 10 6.1
2020-Jan-22 09:55 297 6 gusting 11 6.1
2020-Jan-22 09:50 315 5 gusting 8 6.1
2020-Jan-22 09:45 300 6 gusting 10 6.1
2020-Jan-22 09:40 303 6 gusting 10 6.1
2020-Jan-22 09:35 301 3 gusting 6 6.1
2020-Jan-22 09:30 313 4 gusting 7 5.6
2020-Jan-22 09:25 293 3 gusting 7 5.6
2020-Jan-22 09:20 315 3 gusting 7 5.6
2020-Jan-22 09:15 305 2 gusting 6 5.0
2020-Jan-22 09:10 309 4 gusting 10 5.0
2020-Jan-22 09:05 315 3 gusting 6 5.0
2020-Jan-22 09:00 323 2 gusting 6 5.0
2020-Jan-22 08:55 286 1 gusting 6 5.0
2020-Jan-22 08:50 274 2 gusting 6 5.0
2020-Jan-22 08:45 266 4 gusting 7 5.0
2020-Jan-22 08:40 274 2 gusting 6 5.0
2020-Jan-22 08:35 271 2 gusting 6 5.0
2020-Jan-22 08:30 312 2 gusting 8 5.0
2020-Jan-22 08:25 261 3 gusting 8 5.0
2020-Jan-22 08:20 297 4 gusting 7 5.0
2020-Jan-22 08:15 299 1 gusting 5 5.0
2020-Jan-22 08:10 286 1 gusting 7 5.0
2020-Jan-22 08:05 270 4 gusting 8 4.4
2020-Jan-22 08:00 282 3 gusting 6 4.4
2020-Jan-22 07:55 280 2 gusting 7 4.4
2020-Jan-22 07:50 267 4 gusting 7 4.4
2020-Jan-22 07:45 270 2 gusting 6 4.4
2020-Jan-22 07:40 272 1 gusting 7 4.4
2020-Jan-22 07:35 285 1 gusting 7 5.0
2020-Jan-22 07:30 310 2 gusting 6 5.0
2020-Jan-22 07:25 306 2 gusting 6 5.0
2020-Jan-22 07:20 310 2 gusting 6 5.0
2020-Jan-22 07:15 283 1 gusting 6 5.0
2020-Jan-22 07:10 261 2 gusting 6 5.0
2020-Jan-22 07:05 271 2 gusting 7 5.0
2020-Jan-22 07:00 272 4 gusting 7 5.0
2020-Jan-22 06:55 275 3 gusting 6 5.0
2020-Jan-22 06:50 263 1 gusting 5 5.6
2020-Jan-22 06:45 270 2 gusting 6 5.6
2020-Jan-22 06:40 275 1 gusting 6 5.6
2020-Jan-22 06:35 255 3 gusting 7 5.6
2020-Jan-22 06:30 301 1 gusting 6 5.6
2020-Jan-22 06:25 266 2 gusting 7 5.6
2020-Jan-22 06:20 306 3 gusting 7 5.6
2020-Jan-22 06:15 290 3 gusting 7 5.6
2020-Jan-22 06:10 313 6 gusting 7 6.1
2020-Jan-22 06:05 301 6 gusting 7 6.1
2020-Jan-22 06:00 285 5 gusting 7 6.1
2020-Jan-22 05:55 303 4 gusting 7 6.1
2020-Jan-22 05:50 300 4 gusting 7 6.1
2020-Jan-22 05:45 298 6 gusting 7 6.1
2020-Jan-22 05:40 319 6 gusting 11 6.7
2020-Jan-22 05:35 300 5 gusting 13 6.7
2020-Jan-22 05:30 311 5 gusting 11 6.7
2020-Jan-22 05:25 298 6 gusting 12 6.7
2020-Jan-22 05:20 307 5 gusting 11 6.7
2020-Jan-22 05:15 318 5 gusting 10 6.7
2020-Jan-22 05:10 305 5 gusting 12 6.7
2020-Jan-22 05:05 308 6 gusting 10 6.7
2020-Jan-22 05:00 304 5 gusting 8 6.7
2020-Jan-22 04:55 308 5 gusting 13 6.7
2020-Jan-22 04:50 278 4 gusting 7 6.7
2020-Jan-22 04:45 329 6 gusting 11 6.7
2020-Jan-22 04:40 292 5 gusting 8 6.7
2020-Jan-22 04:35 280 5 gusting 11 6.7
2020-Jan-22 04:30 276 4 gusting 7 6.7
2020-Jan-22 04:25 277 2 gusting 10 6.7
2020-Jan-22 04:20 305 2 gusting 7 6.7
2020-Jan-22 04:15 275 4 gusting 7 6.7
2020-Jan-22 04:10 326 4 gusting 7 6.7
2020-Jan-22 04:05 314 4 gusting 10 6.7
2020-Jan-22 04:00 308 4 gusting 7 6.7
2020-Jan-22 03:55 306 4 gusting 7 6.7
2020-Jan-22 03:50 328 4 gusting 8 6.7
2020-Jan-22 03:45 299 5 gusting 11 6.7
2020-Jan-22 03:40 291 6 gusting 11 6.7
2020-Jan-22 03:35 291 4 gusting 13 6.7
2020-Jan-22 03:30 294 6 gusting 11 6.7
2020-Jan-22 03:25 310 6 gusting 10 6.7
2020-Jan-22 03:20 291 7 gusting 13 6.7
2020-Jan-22 03:15 298 6 gusting 11 6.7
2020-Jan-22 03:10 267 6 gusting 11 6.7
2020-Jan-22 03:05 315 7 gusting 12 6.7
2020-Jan-22 03:00 281 5 gusting 10 6.7
2020-Jan-22 02:55 275 5 gusting 11 6.7
2020-Jan-22 02:50 270 4 gusting 13 6.7
2020-Jan-22 02:45 264 5 gusting 8 6.7
2020-Jan-22 02:40 258 6 gusting 7 6.7
2020-Jan-22 02:35 272 6 gusting 11 6.7
2020-Jan-22 02:30 268 5 gusting 11 6.7
2020-Jan-22 02:25 267 4 gusting 13 6.7
2020-Jan-22 02:20 264 6 gusting 14 6.7
2020-Jan-22 02:15 272 4 gusting 8 6.7
2020-Jan-22 02:10 265 6 gusting 11 6.7
2020-Jan-22 02:05 264 5 gusting 10 6.7
2020-Jan-22 02:00 268 4 gusting 7 6.7
2020-Jan-22 01:55 282 6 gusting 11 6.7
2020-Jan-22 01:50 254 6 gusting 13 6.7
2020-Jan-22 01:45 258 8 gusting 12 6.7
2020-Jan-22 01:40 253 6 gusting 12 6.7
2020-Jan-22 01:35 262 4 gusting 7 6.7
2020-Jan-22 01:30 276 7 gusting 11 6.1
2020-Jan-22 01:25 259 5 gusting 11 6.1
2020-Jan-22 01:20 258 6 gusting 11 6.1
2020-Jan-22 01:15 263 6 gusting 13 6.1
2020-Jan-22 01:10 249 6 gusting 11 6.1
2020-Jan-22 01:05 271 5 gusting 10 6.1
2020-Jan-22 01:00 258 6 gusting 13 6.1
2020-Jan-22 00:55 251 9 gusting 17 6.1
2020-Jan-22 00:50 257 10 gusting 13 6.1
2020-Jan-22 00:45 261 6 gusting 11 6.1
2020-Jan-22 00:40 255 8 gusting 12 6.1
2020-Jan-22 00:35 265 6 gusting 12 6.1
2020-Jan-22 00:30 264 8 gusting 12 6.1
2020-Jan-22 00:25 259 7 gusting 10 6.1
2020-Jan-22 00:20 270 5 gusting 11 6.1
2020-Jan-22 00:15 263 7 gusting 11 6.1
2020-Jan-22 00:10 261 6 gusting 10 6.1
2020-Jan-22 00:05 270 5 gusting 7 6.1
2020-Jan-22 00:00 282 4 gusting 13 6.1
2020-Jan-21 23:55 263 7 gusting 12 6.1
2020-Jan-21 23:50 256 7 gusting 13 6.1
2020-Jan-21 23:45 257 7 gusting 12 6.1
2020-Jan-21 23:40 255 8 gusting 17 6.1
2020-Jan-21 23:35 257 6 gusting 10 6.1
2020-Jan-21 23:30 251 7 gusting 13 6.1
2020-Jan-21 23:25 260 6 gusting 10 6.1
2020-Jan-21 23:20 252 6 gusting 13 6.1
2020-Jan-21 23:15 259 8 gusting 12 6.1
2020-Jan-21 23:10 258 6 gusting 12 6.1
2020-Jan-21 23:05 262 7 gusting 13 6.1
2020-Jan-21 23:00 258 5 gusting 8 6.1
2020-Jan-21 22:55 267 6 gusting 8 6.1
2020-Jan-21 22:50 260 6 gusting 12 6.1
2020-Jan-21 22:45 272 6 gusting 12 6.1
2020-Jan-21 22:40 259 6 gusting 10 6.1
2020-Jan-21 22:35 265 6 gusting 12 6.1
2020-Jan-21 22:30 262 6 gusting 11 6.1
2020-Jan-21 22:25 271 6 gusting 13 6.1
2020-Jan-21 22:20 284 5 gusting 10 6.1
2020-Jan-21 22:15 254 6 gusting 10 6.1
2020-Jan-21 22:10 284 7 gusting 14 6.1
2020-Jan-21 22:05 261 6 gusting 11 6.1
2020-Jan-21 22:00 252 6 gusting 11 6.1
2020-Jan-21 21:55 264 8 gusting 12 6.1
2020-Jan-21 21:50 258 7 gusting 13 6.1
2020-Jan-21 21:45 260 6 gusting 13 6.1
2020-Jan-21 21:40 247 6 gusting 12 6.1
2020-Jan-21 21:35 255 7 gusting 13 6.1
2020-Jan-21 21:30 255 6 gusting 13 6.1
2020-Jan-21 21:25 265 7 gusting 13 6.1
2020-Jan-21 21:20 251 6 gusting 18 6.1
2020-Jan-21 21:15 265 6 gusting 12 6.1
2020-Jan-21 21:10 262 7 gusting 13 6.1
2020-Jan-21 21:05 249 7 gusting 12 6.1
2020-Jan-21 21:00 246 6 gusting 12 6.1
2020-Jan-21 20:55 243 5 gusting 11 6.1
2020-Jan-21 20:50 243 6 gusting 11 6.1
2020-Jan-21 20:45 250 4 gusting 8 6.1
2020-Jan-21 20:40 255 6 gusting 10 6.1
2020-Jan-21 20:35 247 5 gusting 8 6.1
2020-Jan-21 20:30 257 3 gusting 7 6.1
2020-Jan-21 20:25 252 5 gusting 8 6.1
2020-Jan-21 20:20 257 5 gusting 8 6.1
2020-Jan-21 20:15 244 6 gusting 8 6.1
2020-Jan-21 20:10 262 3 gusting 8 6.1
2020-Jan-21 20:05 262 6 gusting 7 6.1
2020-Jan-21 20:00 248 4 gusting 7 6.1
2020-Jan-21 19:55 258 4 gusting 10 6.1
2020-Jan-21 19:50 262 5 gusting 8 6.1
2020-Jan-21 19:45 247 5 gusting 8 6.1
2020-Jan-21 19:40 247 4 gusting 7 6.1
2020-Jan-21 19:35 253 5 gusting 8 6.1
2020-Jan-21 19:30 246 5 gusting 7 5.6
2020-Jan-21 19:25 255 5 gusting 11 5.6
2020-Jan-21 19:20 256 6 gusting 12 5.6
2020-Jan-21 19:15 226 5 gusting 8 5.6
2020-Jan-21 19:10 254 5 gusting 11 5.6
2020-Jan-21 19:05 247 5 gusting 10 5.6
2020-Jan-21 19:00 246 6 gusting 10 5.6
2020-Jan-21 18:55 245 6 gusting 12 5.6
2020-Jan-21 18:50 252 7 gusting 11 5.6
2020-Jan-21 18:45 238 6 gusting 11 5.6
2020-Jan-21 18:40 250 6 gusting 11 5.6
2020-Jan-21 18:35 248 7 gusting 11 5.6
2020-Jan-21 18:30 255 6 gusting 12 5.6
2020-Jan-21 18:25 242 5 gusting 11 5.6
2020-Jan-21 18:20 249 6 gusting 14 5.6
2020-Jan-21 18:15 244 7 gusting 12 5.6
2020-Jan-21 18:10 251 6 gusting 12 5.6
2020-Jan-21 18:05 244 8 gusting 13 5.6
2020-Jan-21 18:00 249 8 gusting 12 5.6
2020-Jan-21 17:55 258 10 gusting 13 6.1
2020-Jan-21 17:50 258 8 gusting 12 6.1
2020-Jan-21 17:45 247 6 gusting 10 6.1
2020-Jan-21 17:40 262 8 gusting 13 6.1
2020-Jan-21 17:35 258 8 gusting 14 6.1
2020-Jan-21 17:30 262 7 gusting 14 6.1
2020-Jan-21 17:25 258 7 gusting 13 6.1
2020-Jan-21 17:20 253 6 gusting 14 6.1
2020-Jan-21 17:15 249 6 gusting 10 6.1
2020-Jan-21 17:10 264 6 gusting 13 6.1
2020-Jan-21 17:05 259 6 gusting 11 6.1
2020-Jan-21 17:00 257 6 gusting 13 6.1
2020-Jan-21 16:55 250 7 gusting 13 6.1
2020-Jan-21 16:50 266 7 gusting 12 6.1
2020-Jan-21 16:45 256 6 gusting 13 6.1
2020-Jan-21 16:40 254 7 gusting 13 6.1
2020-Jan-21 16:35 249 7 gusting 12 6.1
2020-Jan-21 16:30 259 6 gusting 11 6.1
2020-Jan-21 16:25 257 6 gusting 10 6.1
2020-Jan-21 16:20 252 7 gusting 11 6.1
2020-Jan-21 16:15 254 9 gusting 13 6.1
2020-Jan-21 16:10 254 8 gusting 19 6.1
2020-Jan-21 16:05 251 7 gusting 13 6.1
2020-Jan-21 16:00 248 6 gusting 12 6.1
2020-Jan-21 15:55 261 8 gusting 17 6.1
2020-Jan-21 15:50 267 7 gusting 12 6.1
2020-Jan-21 15:45 256 8 gusting 12 6.1
2020-Jan-21 15:40 280 5 gusting 13 6.1
2020-Jan-21 15:35 253 7 gusting 12 6.1
2020-Jan-21 15:20 253 6 gusting 14 6.1
2020-Jan-21 15:15 263 6 gusting 11 6.1
2020-Jan-21 15:05 269 7 gusting 14 6.1
2020-Jan-21 15:00 262 9 gusting 14 6.1
2020-Jan-21 14:55 245 8 gusting 13 6.1
2020-Jan-21 14:50 251 6 gusting 12 6.1
2020-Jan-21 14:45 244 8 gusting 13 6.1
2020-Jan-21 14:40 239 9 gusting 17 6.1
2020-Jan-21 14:35 232 8 gusting 17 6.1
2020-Jan-21 14:30 254 8 gusting 13 6.1
2020-Jan-21 14:25 250 8 gusting 13 6.1
2020-Jan-21 14:20 244 7 gusting 13 6.1
2020-Jan-21 14:15 263 7 gusting 14 6.1
2020-Jan-21 14:10 253 8 gusting 13 6.1
2020-Jan-21 14:05 255 8 gusting 13 6.1
2020-Jan-21 14:00 254 6 gusting 11 6.1
2020-Jan-21 13:55 263 7 gusting 12 6.1
2020-Jan-21 13:50 246 8 gusting 12 6.1
2020-Jan-21 13:45 247 6 gusting 13 6.1
2020-Jan-21 13:40 247 8 gusting 13 6.1
2020-Jan-21 13:35 261 6 gusting 10 6.1
2020-Jan-21 13:30 261 6 gusting 13 6.1
2020-Jan-21 13:25 257 7 gusting 19 6.1
2020-Jan-21 13:20 256 6 gusting 17 6.1
2020-Jan-21 13:15 261 7 gusting 12 6.1
2020-Jan-21 13:10 257 8 gusting 12 6.1
2020-Jan-21 13:05 245 6 gusting 11 6.1
2020-Jan-21 13:00 246 6 gusting 13 6.1
2020-Jan-21 12:55 244 7 gusting 13 6.1
2020-Jan-21 12:50 260 8 gusting 12 6.1
2020-Jan-21 12:45 255 8 gusting 13 6.1
2020-Jan-21 12:40 238 6 gusting 18 6.1
2020-Jan-21 12:35 217 8 gusting 18 6.1
2020-Jan-21 12:30 240 7 gusting 13 6.1
2020-Jan-21 12:15 230 9 gusting 13 6.1
2020-Jan-21 12:10 248 6 gusting 13 6.1
2020-Jan-21 12:05 242 7 gusting 11 6.1
2020-Jan-21 12:00 220 9 gusting 13 6.1
2020-Jan-21 11:55 249 7 gusting 13 6.1
2020-Jan-21 11:50 245 6 gusting 12 6.1
2020-Jan-21 11:45 255 6 gusting 13 6.1
2020-Jan-21 11:40 229 6 gusting 12 6.7
2020-Jan-21 11:35 231 6 gusting 11 6.7
2020-Jan-21 11:30 228 5 gusting 12 6.7
2020-Jan-21 11:25 236 5 gusting 12 6.7
2020-Jan-21 11:20 250 7 gusting 12 6.7
2020-Jan-21 11:15 260 7 gusting 17 6.7
2020-Jan-21 11:10 266 7 gusting 13 6.7
2020-Jan-21 11:05 239 5 gusting 10 6.7
2020-Jan-21 11:00 264 8 gusting 18 6.7
2020-Jan-21 10:55 274 7 gusting 18 6.7
2020-Jan-21 10:40 278 6 gusting 17 6.7
2020-Jan-21 10:35 287 6 gusting 13 6.7
2020-Jan-21 10:30 287 6 gusting 14 6.7
2020-Jan-21 10:25 270 7 gusting 13 6.1
2020-Jan-21 10:20 287 6 gusting 13 6.1
2020-Jan-21 10:15 266 7 gusting 11 6.1
2020-Jan-21 10:10 273 6 gusting 11 6.1
2020-Jan-21 10:05 282 5 gusting 13 6.1
2020-Jan-21 10:00 270 5 gusting 11 6.1
2020-Jan-21 09:55 260 6 gusting 13 6.1
2020-Jan-21 09:50 264 12 gusting 19 6.1
2020-Jan-21 09:45 262 7 gusting 11 6.1
2020-Jan-21 09:40 255 8 gusting 13 5.6
2020-Jan-21 09:35 251 6 gusting 11 5.6
2020-Jan-21 09:30 274 5 gusting 13 5.6
2020-Jan-21 09:25 255 7 gusting 11 5.6
2020-Jan-21 09:20 251 7 gusting 13 5.6
2020-Jan-21 09:15 255 6 gusting 13 5.6
2020-Jan-21 09:10 235 6 gusting 12 5.6
2020-Jan-21 09:05 239 5 gusting 13 5.6
2020-Jan-21 09:00 240 7 gusting 13 5.6
2020-Jan-21 08:55 234 7 gusting 12 5.6
2020-Jan-21 08:50 251 6 gusting 13 5.6
2020-Jan-21 08:45 255 7 gusting 12 5.6
2020-Jan-21 08:40 253 9 gusting 13 5.6
2020-Jan-21 08:35 241 7 gusting 12 5.6
2020-Jan-21 08:30 247 10 gusting 14 5.6
2020-Jan-21 08:25 244 6 gusting 13 6.1
2020-Jan-21 08:20 247 6 gusting 10 6.1
2020-Jan-21 08:15 277 6 gusting 13 6.1
2020-Jan-21 08:10 271 7 gusting 10 6.1
2020-Jan-21 08:05 285 6 gusting 14 6.1
2020-Jan-21 08:00 266 6 gusting 13 6.1
2020-Jan-21 07:55 260 7 gusting 13 6.1
2020-Jan-21 07:50 261 7 gusting 13 6.1
2020-Jan-21 07:45 254 6 gusting 13 6.1
2020-Jan-21 07:40 280 6 gusting 11 6.1
2020-Jan-21 07:35 275 8 gusting 17 6.1
2020-Jan-21 07:30 251 8 gusting 19 5.6
2020-Jan-21 07:25 289 7 gusting 11 5.6
2020-Jan-21 07:20 265 6 gusting 12 5.6
2020-Jan-21 07:15 269 6 gusting 11 5.6
2020-Jan-21 07:10 305 7 gusting 12 5.6
2020-Jan-21 07:05 251 6 gusting 13 5.6
2020-Jan-21 07:00 265 5 gusting 10 5.6
2020-Jan-21 06:55 256 6 gusting 13 5.6
2020-Jan-21 06:50 274 11 gusting 19 5.6
2020-Jan-21 06:45 266 9 gusting 17 5.6
2020-Jan-21 06:40 256 7 gusting 13 5.6
2020-Jan-21 06:35 255 8 gusting 13 5.6
2020-Jan-21 06:30 241 8 gusting 13 5.6
2020-Jan-21 06:25 267 7 gusting 17 5.6
2020-Jan-21 06:20 256 8 gusting 14 5.6
2020-Jan-21 06:15 253 7 gusting 13 5.6
2020-Jan-21 06:10 249 8 gusting 17 5.6
2020-Jan-21 06:05 263 8 gusting 13 5.6
2020-Jan-21 06:00 250 8 gusting 13 5.6
2020-Jan-21 05:55 242 7 gusting 13 5.6
2020-Jan-21 05:50 241 5 gusting 10 5.6
2020-Jan-21 05:45 245 8 gusting 12 5.6
2020-Jan-21 05:40 254 9 gusting 13 5.6
2020-Jan-21 05:35 249 4 gusting 8 5.6
2020-Jan-21 05:30 256 7 gusting 11 5.6
2020-Jan-21 05:25 258 8 gusting 13 5.6
2020-Jan-21 05:20 251 7 gusting 11 5.6
2020-Jan-21 05:15 255 8 gusting 12 5.6
2020-Jan-21 05:10 242 7 gusting 19 5.6
2020-Jan-21 05:05 254 7 gusting 11 5.6
2020-Jan-21 05:00 252 8 gusting 13 5.6
2020-Jan-21 04:55 254 7 gusting 12 5.6
2020-Jan-21 04:50 260 8 gusting 13 5.6
2020-Jan-21 04:45 257 8 gusting 13 5.6
2020-Jan-21 04:40 240 8 gusting 13 5.6
2020-Jan-21 04:35 251 8 gusting 13 5.6
2020-Jan-21 04:30 251 8 gusting 14 5.6
2020-Jan-21 04:25 238 9 gusting 17 5.6
2020-Jan-21 04:20 267 8 gusting 13 5.6
2020-Jan-21 04:15 239 6 gusting 12 5.6
2020-Jan-21 04:10 255 7 gusting 13 5.6
2020-Jan-21 04:05 253 10 gusting 18 5.6
2020-Jan-21 04:00 249 6 gusting 10 5.6
2020-Jan-21 03:55 250 7 gusting 14 5.6
2020-Jan-21 03:50 236 8 gusting 13 5.6
2020-Jan-21 03:45 230 6 gusting 12 5.6
2020-Jan-21 03:40 238 7 gusting 13 5.6
2020-Jan-21 03:35 251 8 gusting 13 5.6
2020-Jan-21 03:30 256 6 gusting 13 5.6
2020-Jan-21 03:25 247 7 gusting 14 5.6
2020-Jan-21 03:20 260 7 gusting 12 5.6
2020-Jan-21 03:15 258 7 gusting 12 5.6
2020-Jan-21 03:10 250 4 gusting 10 5.6
2020-Jan-21 03:05 242 7 gusting 11 5.6
2020-Jan-21 03:00 258 6 gusting 10 5.6
2020-Jan-21 02:55 241 6 gusting 12 5.6
2020-Jan-21 02:50 229 7 gusting 13 5.6
2020-Jan-21 02:45 249 6 gusting 11 5.6
2020-Jan-21 02:40 242 6 gusting 11 5.6
2020-Jan-21 02:35 237 6 gusting 12 5.6
2020-Jan-21 02:30 243 9 gusting 13 5.6
2020-Jan-21 02:25 237 5 gusting 8 5.6
2020-Jan-21 02:20 251 7 gusting 14 5.6
2020-Jan-21 02:15 248 6 gusting 12 5.6
2020-Jan-21 02:10 253 7 gusting 13 5.6
2020-Jan-21 02:05 259 6 gusting 12 5.6
2020-Jan-21 02:00 251 7 gusting 13 5.6
2020-Jan-21 01:55 243 7 gusting 14 5.6
2020-Jan-21 01:50 259 9 gusting 18 5.6
2020-Jan-21 01:45 249 10 gusting 13 5.6
2020-Jan-21 01:40 256 7 gusting 14 5.6
2020-Jan-21 01:35 228 9 gusting 17 5.6
2020-Jan-21 01:30 262 7 gusting 13 5.6
2020-Jan-21 01:25 251 6 gusting 13 5.6
2020-Jan-21 01:20 243 6 gusting 13 5.6
2020-Jan-21 01:15 251 7 gusting 13 5.6
2020-Jan-21 01:10 257 8 gusting 14 5.6
2020-Jan-21 01:05 251 7 gusting 11 5.6
2020-Jan-21 01:00 257 6 gusting 11 5.6
2020-Jan-21 00:55 250 9 gusting 14 5.6
2020-Jan-21 00:50 226 7 gusting 13 5.6
2020-Jan-21 00:45 240 7 gusting 13 5.6
2020-Jan-21 00:40 240 7 gusting 14 5.6
2020-Jan-21 00:35 251 8 gusting 14 5.6
2020-Jan-21 00:30 255 10 gusting 17 5.6
2020-Jan-21 00:25 249 7 gusting 13 5.6
2020-Jan-21 00:20 258 8 gusting 13 5.6
2020-Jan-21 00:15 255 6 gusting 12 5.6
2020-Jan-21 00:10 246 6 gusting 8 5.0
2020-Jan-21 00:05 257 5 gusting 7 5.0
2020-Jan-21 00:00 259 6 gusting 14 5.0
2020-Jan-20 23:55 253 6 gusting 11 5.0
2020-Jan-20 23:50 254 6 gusting 11 5.0
2020-Jan-20 23:45 245 7 gusting 12 5.0
2020-Jan-20 23:40 250 6 gusting 12 5.0
2020-Jan-20 23:35 250 6 gusting 12 5.0
2020-Jan-20 23:30 230 6 gusting 11 5.6
2020-Jan-20 23:25 232 6 gusting 14 5.6
2020-Jan-20 23:20 237 6 gusting 10 5.6
2020-Jan-20 23:15 234 7 gusting 10 5.6
2020-Jan-20 23:10 232 10 gusting 18 5.6
2020-Jan-20 23:05 237 5 gusting 18 5.6
2020-Jan-20 23:00 247 7 gusting 18 5.6
2020-Jan-20 22:55 242 7 gusting 13 5.6
2020-Jan-20 22:50 237 10 gusting 14 5.6
2020-Jan-20 22:45 237 6 gusting 13 5.6
2020-Jan-20 22:40 244 8 gusting 12 5.6
2020-Jan-20 22:35 259 8 gusting 13 5.6
2020-Jan-20 22:30 239 6 gusting 17 5.6
2020-Jan-20 22:25 250 7 gusting 12 5.6
2020-Jan-20 22:20 250 10 gusting 13 5.6
2020-Jan-20 22:15 255 6 gusting 17 5.6
2020-Jan-20 22:10 238 7 gusting 13 5.6
2020-Jan-20 22:05 246 6 gusting 13 5.6
2020-Jan-20 22:00 247 6 gusting 10 5.6